Time;durP1;ratioP1;P1;durP2;ratioP2;P2;SDS_P1;SDS_P2;PMS_P1;PMS_P2;Temp;Humidity;BMP_temperature;BMP_pressure;BME280_temperature;BME280_humidity;BME280_pressure;Samples;Min_cycle;Max_cycle;Signal;HPM_P1;HPM_P2
2022/01/10 00:00:21;;;;;;;24.08;11.13;;;;;;;-0.86;95.03;100981.56;5022261;28;20091;-74
2022/01/10 00:02:54;;;;;;;24.63;10.63;;;;;;;-0.87;95.04;100977.13;5024901;28;20026;-75
2022/01/10 00:05:19;;;;;;;26.95;11.23;;;;;;;-0.86;95.37;100981.56;5023921;28;20037;-75
2022/01/10 00:07:45;;;;;;;22.73;10.30;;;;;;;-0.86;95.26;100997.56;5024106;28;20036;-75
2022/01/10 00:10:11;;;;;;;20.45;9.70;;;;;;;-0.89;94.94;101005.63;5019672;28;20021;-75
2022/01/10 00:12:37;;;;;;;18.63;9.52;;;;;;;-0.92;94.66;101011.94;5012033;28;20401;-74
2022/01/10 00:15:03;;;;;;;24.33;10.57;;;;;;;-0.97;94.82;101010.31;5018364;28;20029;-73
2022/01/10 00:17:28;;;;;;;27.58;11.02;;;;;;;-0.95;95.19;101021.81;5025747;28;20033;-76
2022/01/10 00:19:53;;;;;;;30.98;11.20;;;;;;;-0.94;94.85;101020.91;5021023;28;20034;-75
2022/01/10 00:22:20;;;;;;;25.23;11.75;;;;;;;-0.95;95.11;101028.03;5015028;28;20036;-76
2022/01/10 00:24:45;;;;;;;25.58;10.70;;;;;;;-0.97;94.95;101023.66;5022520;28;20029;-76
2022/01/10 00:27:10;;;;;;;20.27;10.18;;;;;;;-0.97;94.72;101027.19;5026695;28;20044;-74
2022/01/10 00:29:35;;;;;;;19.92;10.38;;;;;;;-1.03;94.64;101016.63;5023344;28;20033;-74
2022/01/10 00:32:01;;;;;;;19.10;10.68;;;;;;;-1.01;94.68;101021.97;5025477;28;20393;-74
2022/01/10 00:34:27;;;;;;;24.80;10.65;;;;;;;-1.03;94.89;101024.63;5012170;28;20540;-74
2022/01/10 00:36:53;;;;;;;23.52;11.93;;;;;;;-1.02;95.63;101023.75;5024700;28;20049;-76
2022/01/10 00:39:18;;;;;;;24.00;11.10;;;;;;;-1.00;95.06;101024.59;5025632;28;20033;-73
2022/01/10 00:41:45;;;;;;;21.80;11.35;;;;;;;-1.00;95.58;101029.94;5015767;28;20041;-74
2022/01/10 00:44:11;;;;;;;27.77;11.90;;;;;;;-1.00;95.63;101035.25;5017942;28;20090;-78
2022/01/10 00:46:36;;;;;;;24.17;12.35;;;;;;;-1.02;95.47;101033.56;5026480;28;20584;-75
2022/01/10 00:49:02;;;;;;;26.50;12.38;;;;;;;-1.05;95.40;101031.81;5012563;28;20123;-75
2022/01/10 00:51:28;;;;;;;25.88;12.13;;;;;;;-1.06;95.52;101043.41;5023913;28;20042;-75
2022/01/10 00:53:53;;;;;;;29.27;12.55;;;;;;;-1.06;95.58;101043.41;5025598;28;20720;-72
2022/01/10 00:56:20;;;;;;;23.58;11.23;;;;;;;-1.08;95.17;101056.78;5023838;28;20099;-75
2022/01/10 00:58:46;;;;;;;22.80;10.45;;;;;;;-1.14;94.64;101056.03;5024502;28;20041;-73
2022/01/10 01:01:11;;;;;;;27.40;10.70;;;;;;;-1.19;94.46;101055.25;5019950;28;20045;-73
2022/01/10 01:03:37;;;;;;;21.42;11.27;;;;;;;-1.23;94.62;101059.78;5020585;28;20033;-76
2022/01/10 01:06:03;;;;;;;21.40;10.95;;;;;;;-1.23;95.16;101077.59;5016248;28;20109;-78
2022/01/10 01:08:31;;;;;;;25.73;11.23;;;;;;;-1.25;94.73;101077.63;5013847;28;20041;-73
2022/01/10 01:11:30;;;;;;;32.10;12.82;;;;;;;-1.25;95.35;101080.28;5018132;28;20032;-78
2022/01/10 01:13:55;;;;;;;28.40;12.20;;;;;;;-1.26;95.22;101086.50;5013376;28;20508;-73
2022/01/10 01:24:26;;;;;;;26.52;11.35;;;;;;;-1.35;94.74;101116.97;5021889;28;20099;-74
2022/01/10 01:26:52;;;;;;;18.40;10.63;;;;;;;-1.38;94.68;101122.34;5024281;28;20034;-75
2022/01/10 01:29:20;;;;;;;26.92;11.27;;;;;;;-1.39;94.97;101117.03;5026635;28;20030;-73
2022/01/10 01:31:46;;;;;;;32.95;11.18;;;;;;;-1.41;94.91;101119.72;5024320;28;20068;-73
2022/01/10 01:34:12;;;;;;;28.92;12.15;;;;;;;-1.43;94.80;101118.88;5027166;28;20621;-77
2022/01/10 01:36:38;;;;;;;24.90;11.18;;;;;;;-1.45;94.67;101128.69;5029847;28;20044;-73
2022/01/10 01:39:16;;;;;;;27.20;11.43;;;;;;;-1.49;94.41;101123.44;5034107;28;20771;-75
2022/01/10 01:41:42;;;;;;;30.58;12.45;;;;;;;-1.49;95.55;101124.34;5020187;28;20021;-78
2022/01/10 01:44:08;;;;;;;33.47;14.07;;;;;;;-1.46;95.69;101131.41;5027343;28;20031;-78
2022/01/10 01:46:34;;;;;;;28.55;12.18;;;;;;;-1.43;95.71;101147.34;5028684;28;20405;-76
2022/01/10 01:49:00;;;;;;;35.03;13.13;;;;;;;-1.44;95.58;101158.94;5027368;28;20025;-76
2022/01/10 01:51:25;;;;;;;29.67;11.32;;;;;;;-1.48;94.84;101162.56;5026615;28;20118;-74
2022/01/10 01:53:52;;;;;;;24.58;11.77;;;;;;;-1.53;94.68;101165.31;5027270;28;20125;-74
2022/01/10 01:56:18;;;;;;;25.00;12.38;;;;;;;-1.57;94.61;101164.50;5028992;28;20037;-78
2022/01/10 01:58:44;;;;;;;29.10;13.00;;;;;;;-1.60;95.17;101163.66;5027915;28;20025;-74
2022/01/10 02:01:11;;;;;;;26.83;12.85;;;;;;;-1.58;95.31;101168.06;5024065;28;20484;-79
2022/01/10 02:03:38;;;;;;;29.75;13.15;;;;;;;-1.57;95.38;101167.16;5029567;28;20100;-76
2022/01/10 02:06:05;;;;;;;33.80;12.48;;;;;;;-1.55;95.47;101170.66;5025739;28;20029;-78
2022/01/10 02:08:31;;;;;;;30.92;13.02;;;;;;;-1.55;95.71;101169.78;5016816;28;20498;-78
2022/01/10 02:10:56;;;;;;;27.83;14.13;;;;;;;-1.53;95.63;101180.44;5027528;28;20087;-74
2022/01/10 02:13:22;;;;;;;23.05;12.10;;;;;;;-1.53;95.78;101183.13;5023163;28;20490;-76
2022/01/10 02:15:51;;;;;;;35.22;13.52;;;;;;;-1.49;96.08;101176.78;5028617;28;20033;-74
2022/01/10 02:18:18;;;;;;;36.97;14.68;;;;;;;-1.48;96.36;101176.78;5028265;28;20425;-74
2022/01/10 02:20:44;;;;;;;38.40;14.00;;;;;;;-1.44;96.31;101180.28;5028966;28;20087;-74
2022/01/10 02:23:09;;;;;;;27.38;13.43;;;;;;;-1.42;96.36;101187.34;5026309;28;20021;-75
2022/01/10 02:25:35;;;;;;;29.85;13.15;;;;;;;-1.42;96.08;101184.66;5025797;28;20087;-74
2022/01/10 02:28:00;;;;;;;28.88;13.50;;;;;;;-1.42;96.22;101191.81;5023925;28;20052;-75
2022/01/10 02:30:27;;;;;;;34.80;14.10;;;;;;;-1.39;96.05;101191.75;5029232;28;20033;-73
2022/01/10 02:32:56;;;;;;;30.25;13.35;;;;;;;-1.38;96.25;101199.72;5028746;28;20033;-73
2022/01/10 02:35:34;;;;;;;33.78;13.13;;;;;;;-1.39;96.07;101208.66;5024353;28;20057;-78
2022/01/10 02:37:59;;;;;;;32.33;14.45;;;;;;;-1.39;95.68;101205.09;5024907;28;20029;-73
2022/01/10 02:40:28;;;;;;;32.40;14.85;;;;;;;-1.38;95.99;101215.75;5027531;28;20068;-77
2022/01/10 02:42:54;;;;;;;37.20;14.07;;;;;;;-1.35;96.26;101231.72;5023469;28;20539;-77
2022/01/10 02:45:20;;;;;;;34.40;13.82;;;;;;;-1.31;96.49;101235.19;5024481;28;20052;-73
2022/01/10 02:47:47;;;;;;;29.52;13.70;;;;;;;-1.28;96.37;101243.13;5026829;28;20072;-74
2022/01/10 02:50:13;;;;;;;34.22;14.10;;;;;;;-1.26;96.30;101245.78;5027201;28;20037;-77
2022/01/10 02:52:39;;;;;;;37.38;15.13;;;;;;;-1.25;96.06;101242.22;5025677;28;20103;-74
2022/01/10 02:55:06;;;;;;;31.35;14.07;;;;;;;-1.22;95.93;101236.81;5028634;28;20420;-73
2022/01/10 02:57:33;;;;;;;33.92;13.50;;;;;;;-1.19;96.06;101259.00;5028815;28;20497;-74
2022/01/10 03:00:00;;;;;;;30.55;12.23;;;;;;;-1.17;95.68;101266.97;5023628;28;20481;-76
2022/01/10 03:02:30;;;;;;;25.50;12.00;;;;;;;-1.15;95.79;101266.03;5019141;28;20159;-76
2022/01/10 03:04:55;;;;;;;30.27;13.15;;;;;;;-1.14;95.67;101269.59;5021694;28;20035;-73
2022/01/10 03:07:24;;;;;;;27.42;13.32;;;;;;;-1.10;95.74;101273.97;5022689;28;20030;-77
2022/01/10 03:09:51;;;;;;;28.20;12.63;;;;;;;-1.08;95.90;101283.69;5023891;28;20087;-75
2022/01/10 03:12:16;;;;;;;33.00;13.45;;;;;;;-1.05;96.12;101277.44;5027336;28;20029;-77
2022/01/10 03:14:42;;;;;;;34.15;13.73;;;;;;;-1.03;95.98;101278.28;5014936;28;20028;-76
2022/01/10 03:17:10;;;;;;;25.50;14.07;;;;;;;-1.00;95.99;101286.25;5019453;28;20104;-74
2022/01/10 03:19:36;;;;;;;27.65;13.27;;;;;;;-0.98;95.86;101289.78;5022564;28;20040;-75
2022/01/10 03:22:02;;;;;;;28.50;13.10;;;;;;;-0.96;96.31;101295.09;5025778;28;20026;-74
2022/01/10 03:24:27;;;;;;;27.50;12.93;;;;;;;-0.96;95.66;101292.41;5027292;28;20030;-73
2022/01/10 03:26:52;;;;;;;33.47;13.38;;;;;;;-0.97;95.77;101302.22;5023387;28;20029;-77
2022/01/10 03:29:19;;;;;;;26.73;13.80;;;;;;;-0.99;95.86;101298.69;5027965;28;20108;-77
2022/01/10 03:31:44;;;;;;;30.00;13.40;;;;;;;-0.99;96.13;101300.47;5027467;28;20488;-76
2022/01/10 03:34:12;;;;;;;28.02;12.40;;;;;;;-0.99;95.92;101306.69;5017205;28;20131;-74
2022/01/10 03:36:38;;;;;;;35.42;13.68;;;;;;;-1.00;96.01;101304.06;5024823;28;20029;-75
2022/01/10 03:39:03;;;;;;;20.90;11.88;;;;;;;-1.02;95.83;101305.88;5025735;28;20025;-74
2022/01/10 03:41:28;;;;;;;27.13;14.10;;;;;;;-0.95;95.87;101315.53;5026192;28;20025;-73
2022/01/10 03:43:54;;;;;;;28.52;13.52;;;;;;;-0.92;96.12;101326.19;5018454;28;20040;-74
2022/01/10 03:46:19;;;;;;;33.38;14.63;;;;;;;-0.89;96.37;101332.31;5015015;28;20030;-73
2022/01/10 03:48:44;;;;;;;28.38;13.88;;;;;;;-0.85;95.94;101357.19;5022507;28;20052;-75
2022/01/10 03:51:10;;;;;;;38.25;13.93;;;;;;;-0.86;96.08;101339.41;5026343;28;20041;-77
2022/01/10 03:53:36;;;;;;;29.75;13.55;;;;;;;-0.87;96.18;101343.00;5016490;28;20128;-77
2022/01/10 03:56:01;;;;;;;26.70;13.88;;;;;;;-0.86;96.11;101345.63;5026631;28;20461;-73
2022/01/10 03:58:26;;;;;;;31.13;14.27;;;;;;;-0.84;96.07;101361.63;5027365;28;20049;-74
2022/01/10 04:00:52;;;;;;;31.77;13.35;;;;;;;-0.82;96.21;101359.81;5024469;28;20027;-77
2022/01/10 04:03:17;;;;;;;47.33;15.15;;;;;;;-0.80;96.28;101358.00;5025919;28;20401;-74
2022/01/10 04:05:42;;;;;;;35.10;14.48;;;;;;;-0.78;96.57;101357.06;5019894;28;20385;-76
2022/01/10 04:08:08;;;;;;;39.90;14.77;;;;;;;-0.77;96.32;101364.16;5017411;28;20017;-74
2022/01/10 04:10:33;;;;;;;32.80;15.10;;;;;;;-0.73;96.28;101366.78;5026071;28;20061;-76
2022/01/10 04:12:58;;;;;;;32.67;15.60;;;;;;;-0.74;96.27;101365.91;5016596;28;20441;-74
2022/01/10 04:15:24;;;;;;;33.53;14.85;;;;;;;-0.73;96.41;101364.13;5026673;28;20021;-74
2022/01/10 04:17:55;;;;;;;38.38;14.95;;;;;;;-0.71;96.19;101373.84;5024667;28;20021;-76
2022/01/10 04:20:20;;;;;;;36.53;16.08;;;;;;;-0.70;96.45;101375.66;5027393;28;20029;-74
2022/01/10 04:22:46;;;;;;;29.58;14.65;;;;;;;-0.72;96.13;101385.47;5024477;28;20033;-74
2022/01/10 04:25:11;;;;;;;35.17;15.45;;;;;;;-0.72;96.16;101395.28;5025485;28;20029;-74
2022/01/10 04:27:37;;;;;;;31.48;12.82;;;;;;;-0.74;96.28;101395.31;5025555;28;20473;-74
2022/01/10 04:30:02;;;;;;;30.98;12.95;;;;;;;-0.76;95.95;101394.44;5024120;28;20060;-73
2022/01/10 04:32:30;;;;;;;35.72;15.48;;;;;;;-0.78;96.13;101407.81;5023686;28;20164;-73
2022/01/10 04:34:56;;;;;;;32.80;13.57;;;;;;;-0.81;96.31;101407.88;5026866;28;20118;-77
2022/01/10 04:37:21;;;;;;;26.92;13.27;;;;;;;-0.78;96.08;101409.63;5021879;28;20073;-74
2022/01/10 04:39:46;;;;;;;34.20;14.68;;;;;;;-0.81;96.19;101412.31;5019842;28;20033;-74
2022/01/10 04:42:11;;;;;;;30.13;12.80;;;;;;;-0.81;96.17;101413.19;5011012;28;20592;-74
2022/01/10 04:44:37;;;;;;;30.13;13.50;;;;;;;-0.79;95.81;101421.22;5017133;28;20041;-78
2022/01/10 04:47:02;;;;;;;24.73;14.07;;;;;;;-0.78;95.97;101431.00;5026747;28;20029;-76
2022/01/10 04:49:30;;;;;;;30.45;13.35;;;;;;;-0.79;96.01;101434.56;5018638;28;20398;-74
2022/01/10 04:51:56;;;;;;;30.70;14.25;;;;;;;-0.78;95.84;101439.00;5016264;28;20052;-73
2022/01/10 04:54:21;;;;;;;31.67;14.68;;;;;;;-0.84;96.00;101437.31;5026601;28;20428;-77
2022/01/10 04:56:46;;;;;;;36.72;14.95;;;;;;;-0.77;96.23;101448.78;5021078;28;20034;-75
2022/01/10 04:59:12;;;;;;;31.60;14.75;;;;;;;-0.71;96.08;101461.13;5025771;28;20025;-75
2022/01/10 05:01:38;;;;;;;28.00;13.60;;;;;;;-0.68;96.27;101461.09;5025016;28;20358;-76
2022/01/10 05:04:03;;;;;;;29.58;13.82;;;;;;;-0.66;96.42;101476.19;5026569;28;20083;-79
2022/01/10 05:06:29;;;;;;;31.55;14.60;;;;;;;-0.62;96.03;101479.69;5026192;28;20033;-75
2022/01/10 05:08:54;;;;;;;33.58;15.10;;;;;;;-0.67;96.22;101471.75;5020866;28;20036;-75
2022/01/10 05:11:20;;;;;;;27.45;13.90;;;;;;;-0.61;96.14;101486.78;5029554;28;20025;-75
2022/01/10 05:13:46;;;;;;;34.25;15.35;;;;;;;-0.56;96.32;101498.28;5022694;28;20512;-78
2022/01/10 05:16:12;;;;;;;28.30;14.93;;;;;;;-0.53;96.54;101498.25;5029925;28;20037;-77
2022/01/10 05:18:39;;;;;;;37.78;14.30;;;;;;;-0.48;96.73;101503.53;5028038;28;20151;-74
2022/01/10 05:21:04;;;;;;;45.45;15.75;;;;;;;-0.47;96.70;101503.47;5017188;28;20033;-74
2022/01/10 05:23:30;;;;;;;29.13;14.15;;;;;;;-0.46;96.64;101504.41;5019679;28;20604;-78
2022/01/10 05:25:55;;;;;;;31.20;15.50;;;;;;;-0.44;96.92;101516.81;5026978;28;20067;-76
2022/01/10 05:28:21;;;;;;;35.92;16.48;;;;;;;-0.43;96.64;101520.34;5042706;28;20061;-75
2022/01/10 05:30:47;;;;;;;33.22;16.30;;;;;;;-0.40;96.80;101526.53;5028354;28;20028;-77
2022/01/10 05:33:13;;;;;;;33.17;15.02;;;;;;;-0.40;96.60;101525.66;5028966;28;20475;-75
2022/01/10 05:35:39;;;;;;;27.42;13.75;;;;;;;-0.43;96.76;101529.25;5026558;28;20029;-76
2022/01/10 05:38:05;;;;;;;32.05;15.30;;;;;;;-0.42;96.78;101530.13;5017445;28;20155;-75
2022/01/10 05:40:30;;;;;;;38.83;16.70;;;;;;;-0.41;96.61;101539.94;5030575;28;20469;-76
2022/01/10 05:42:56;;;;;;;32.03;14.82;;;;;;;-0.41;96.87;101540.81;5029812;28;20029;-74
2022/01/10 05:45:21;;;;;;;35.78;15.38;;;;;;;-0.39;96.47;101551.47;5020773;28;20427;-76
2022/01/10 05:47:47;;;;;;;43.05;15.90;;;;;;;-0.38;96.99;101550.56;5024881;28;20029;-75
2022/01/10 05:50:30;;;;;;;28.67;14.98;;;;;;;-0.38;96.62;101554.13;5024545;28;20520;-75
2022/01/10 05:52:56;;;;;;;37.92;15.52;;;;;;;-0.38;96.68;101563.94;5019742;28;20124;-75
2022/01/10 05:55:21;;;;;;;37.85;15.02;;;;;;;-0.37;96.69;101565.72;5028846;28;20142;-75
2022/01/10 05:57:46;;;;;;;39.28;15.85;;;;;;;-0.36;96.78;101572.81;5029472;28;20029;-75
2022/01/10 06:00:12;;;;;;;37.33;16.63;;;;;;;-0.33;96.98;101580.78;5027092;28;20039;-75
2022/01/10 06:02:37;;;;;;;35.38;16.10;;;;;;;-0.34;96.83;101558.50;5027052;28;20026;-76
2022/01/10 06:05:08;;;;;;;36.35;15.82;;;;;;;-0.32;96.66;101574.56;5029608;28;20498;-75
2022/01/10 06:07:34;;;;;;;37.92;16.67;;;;;;;-0.30;96.74;101578.94;5017466;28;20402;-76
2022/01/10 06:09:59;;;;;;;47.20;16.58;;;;;;;-0.29;96.80;101580.69;5026493;28;20033;-76
2022/01/10 06:12:25;;;;;;;33.13;15.07;;;;;;;-0.27;96.62;101591.41;5029206;28;21007;-77
2022/01/10 06:14:50;;;;;;;34.33;14.60;;;;;;;-0.28;96.56;101587.84;5022954;28;20033;-76
2022/01/10 06:17:15;;;;;;;31.23;14.57;;;;;;;-0.27;96.40;101594.94;5028604;28;20033;-75
2022/01/10 06:19:40;;;;;;;34.78;14.85;;;;;;;-0.27;96.39;101586.06;5028323;28;20029;-75
2022/01/10 06:22:06;;;;;;;43.63;18.55;;;;;;;-0.29;96.80;101599.41;5025005;28;20025;-75
2022/01/10 06:24:31;;;;;;;35.33;17.80;;;;;;;-0.26;96.58;101602.06;5029703;28;20038;-75
2022/01/10 06:26:56;;;;;;;44.00;17.08;;;;;;;-0.22;96.66;101618.94;5022785;28;20033;-75
2022/01/10 06:29:22;;;;;;;36.78;16.60;;;;;;;-0.22;96.69;101618.06;5019981;28;20029;-75
2022/01/10 06:31:47;;;;;;;34.30;16.83;;;;;;;-0.23;96.70;101621.63;5028417;28;20052;-75
2022/01/10 06:34:12;;;;;;;40.75;17.45;;;;;;;-0.20;96.35;101640.28;5029293;28;20044;-76
2022/01/10 06:36:38;;;;;;;36.60;17.92;;;;;;;-0.20;96.60;101641.19;5025591;28;20033;-75
2022/01/10 06:39:03;;;;;;;38.10;17.15;;;;;;;-0.20;96.68;101648.31;5022641;28;20388;-75
2022/01/10 06:41:28;;;;;;;34.00;16.42;;;;;;;-0.17;96.49;101661.66;5028620;28;20025;-75
2022/01/10 06:43:54;;;;;;;35.33;17.25;;;;;;;-0.16;96.47;101652.72;5026282;28;20060;-75
2022/01/10 06:46:19;;;;;;;40.05;17.52;;;;;;;-0.15;96.75;101652.69;5027465;28;20079;-76
2022/01/10 06:48:44;;;;;;;41.90;17.88;;;;;;;-0.13;97.01;101664.25;5016943;28;20026;-75
2022/01/10 06:51:09;;;;;;;40.70;18.30;;;;;;;-0.11;96.68;101659.75;5018139;28;20116;-76
2022/01/10 06:53:35;;;;;;;36.58;16.48;;;;;;;-0.12;96.52;101660.66;5019168;28;20025;-76
2022/01/10 06:56:00;;;;;;;34.60;16.33;;;;;;;-0.13;96.85;101661.59;5021281;28;20029;-75
2022/01/10 06:58:25;;;;;;;34.55;16.40;;;;;;;-0.14;96.51;101669.59;5026489;28;20102;-75
2022/01/10 07:00:51;;;;;;;37.45;17.60;;;;;;;-0.13;96.89;101674.06;5026300;28;20516;-75
2022/01/10 07:03:16;;;;;;;33.35;15.93;;;;;;;-0.15;96.37;101684.78;5028336;28;20030;-75
2022/01/10 07:05:41;;;;;;;38.45;16.38;;;;;;;-0.16;96.84;101693.72;5023462;28;20030;-75
2022/01/10 07:08:07;;;;;;;36.95;17.17;;;;;;;-0.15;96.83;101698.13;5023214;28;20541;-75
2022/01/10 07:10:32;;;;;;;36.90;18.38;;;;;;;-0.12;96.71;101707.91;5026937;28;20036;-75
2022/01/10 07:12:58;;;;;;;36.25;16.58;;;;;;;-0.12;96.76;101711.47;5015168;28;20030;-75
2022/01/10 07:15:25;;;;;;;32.92;15.65;;;;;;;-0.12;96.60;101713.28;5026951;28;20029;-75
2022/01/10 07:17:51;;;;;;;43.88;16.88;;;;;;;-0.13;96.66;101708.84;5026807;28;20025;-75
2022/01/10 07:20:16;;;;;;;42.28;17.92;;;;;;;-0.11;96.89;101710.56;5028460;28;20091;-75
2022/01/10 07:22:41;;;;;;;39.85;17.48;;;;;;;-0.09;96.63;101726.63;5020591;28;20023;-76
2022/01/10 07:25:07;;;;;;;37.50;17.52;;;;;;;-0.13;96.48;101728.44;5022630;28;20036;-75
2022/01/10 07:27:33;;;;;;;36.13;17.10;;;;;;;-0.13;96.63;101749.84;5028901;28;20087;-75
2022/01/10 07:29:59;;;;;;;34.63;17.48;;;;;;;-0.15;96.77;101751.63;5027785;28;20894;-76
2022/01/10 07:32:29;;;;;;;45.60;18.00;;;;;;;-0.14;96.77;101753.41;5024226;28;20025;-75
2022/01/10 07:34:54;;;;;;;34.58;16.60;;;;;;;-0.17;96.77;101753.44;5027821;28;20042;-75
2022/01/10 07:37:20;;;;;;;38.65;17.35;;;;;;;-0.13;96.67;101765.00;5022463;28;20037;-76
2022/01/10 07:39:46;;;;;;;36.50;18.15;;;;;;;-0.13;96.38;101763.19;5026932;28;20021;-76
2022/01/10 07:42:11;;;;;;;38.38;18.45;;;;;;;-0.16;96.89;101773.94;5016059;28;20030;-75
2022/01/10 07:44:36;;;;;;;37.50;17.75;;;;;;;-0.16;96.77;101783.75;5025303;28;20032;-75
2022/01/10 07:47:02;;;;;;;41.38;19.65;;;;;;;-0.19;96.83;101786.44;5023891;28;20048;-75
2022/01/10 07:49:27;;;;;;;39.15;18.92;;;;;;;-0.24;96.65;101788.28;5023747;28;20037;-75
2022/01/10 07:51:57;;;;;;;40.10;17.85;;;;;;;-0.26;96.60;101799.03;5026070;28;20077;-75
2022/01/10 07:54:22;;;;;;;42.58;17.30;;;;;;;-0.25;nan;101811.47;5024833;28;20065;-76
2022/01/10 07:56:47;;;;;;;35.85;16.90;;;;;;;-0.27;96.77;101807.94;5025068;28;20057;-75
2022/01/10 07:59:13;;;;;;;32.22;17.27;;;;;;;-0.27;96.30;101815.97;5024514;28;20026;-74
2022/01/10 08:01:38;;;;;;;38.10;17.63;;;;;;;-0.30;96.23;101827.56;5026718;28;20018;-75
2022/01/10 08:04:04;;;;;;;44.13;19.02;;;;;;;-0.31;96.36;101825.81;5025006;28;20033;-75
2022/01/10 08:06:29;;;;;;;34.10;17.95;;;;;;;-0.34;96.61;101822.28;5019515;28;20026;-74
2022/01/10 08:08:54;;;;;;;38.78;16.92;;;;;;;-0.35;96.25;101832.09;5022164;28;20087;-74
2022/01/10 08:11:19;;;;;;;42.22;17.25;;;;;;;-0.35;96.32;101837.44;5022388;28;20116;-75
2022/01/10 08:13:45;;;;;;;36.90;18.13;;;;;;;-0.36;96.30;101842.81;5018090;28;20022;-76
2022/01/10 08:16:10;;;;;;;34.38;16.45;;;;;;;-0.35;96.35;101839.22;5025223;28;20036;-76
2022/01/10 08:18:36;;;;;;;38.88;16.40;;;;;;;-0.38;96.15;101841.94;5021475;28;20029;-76
2022/01/10 08:21:03;;;;;;;36.55;16.65;;;;;;;-0.38;96.45;101860.63;5023759;28;20557;-76
2022/01/10 08:23:28;;;;;;;37.35;17.25;;;;;;;-0.37;96.43;101868.66;5023906;28;20493;-74
2022/01/10 08:25:55;;;;;;;41.53;18.08;;;;;;;-0.35;96.50;101866.84;5023145;28;20028;-74
2022/01/10 08:28:21;;;;;;;31.67;17.25;;;;;;;-0.33;96.16;101869.50;5025956;28;20111;-74
2022/01/10 08:30:46;;;;;;;35.28;16.33;;;;;;;-0.34;96.18;101876.63;5026702;28;20085;-75
2022/01/10 08:33:12;;;;;;;39.38;16.27;;;;;;;-0.33;96.18;101878.44;5021770;28;20037;-75
2022/01/10 08:35:37;;;;;;;37.15;18.50;;;;;;;-0.30;96.39;101882.84;5015927;28;20037;-75
2022/01/10 08:38:02;;;;;;;34.25;18.20;;;;;;;-0.28;96.20;101889.97;5024961;28;20025;-75
2022/01/10 08:40:28;;;;;;;39.97;17.85;;;;;;;-0.24;96.27;101896.13;5021073;28;20680;-76
2022/01/10 08:42:53;;;;;;;47.42;19.38;;;;;;;-0.18;96.73;101911.25;5024127;28;20037;-75
2022/01/10 08:45:19;;;;;;;40.95;18.02;;;;;;;-0.14;96.56;101924.56;5019801;28;20577;-76
2022/01/10 08:47:45;;;;;;;43.63;17.63;;;;;;;-0.10;96.67;101930.75;5022909;28;20029;-75
2022/01/10 08:50:11;;;;;;;36.80;17.98;;;;;;;-0.10;96.96;101934.31;5026220;28;20135;-75
2022/01/10 08:52:39;;;;;;;36.10;18.23;;;;;;;-0.06;97.04;101935.16;5011762;28;20055;-75
2022/01/10 08:55:05;;;;;;;50.50;20.67;;;;;;;-0.02;97.10;101939.56;5025343;28;20029;-75
2022/01/10 08:57:31;;;;;;;42.45;20.15;;;;;;;0.06;97.18;101948.41;5009895;28;20492;-75
2022/01/10 08:59:56;;;;;;;46.45;19.33;;;;;;;0.12;97.31;101956.34;5019633;28;20034;-75
2022/01/10 09:02:21;;;;;;;37.90;17.92;;;;;;;0.17;97.40;101956.31;5012373;28;20030;-75
2022/01/10 09:04:47;;;;;;;42.55;19.25;;;;;;;0.20;96.97;101959.84;5019090;28;20026;-75
2022/01/10 09:07:12;;;;;;;40.25;19.20;;;;;;;0.25;97.10;101959.78;5023676;28;20017;-75
2022/01/10 09:09:38;;;;;;;44.22;18.38;;;;;;;0.31;96.96;101964.16;5020594;28;20038;-75
2022/01/10 09:12:04;;;;;;;33.63;19.05;;;;;;;0.37;96.90;101962.28;5026062;28;20045;-75
2022/01/10 09:14:29;;;;;;;43.33;19.60;;;;;;;0.42;97.02;101965.81;5011882;28;20030;-75
2022/01/10 09:16:55;;;;;;;49.67;20.60;;;;;;;0.50;97.08;101976.41;5014969;28;20597;-74
2022/01/10 09:19:20;;;;;;;41.65;20.00;;;;;;;0.56;96.86;101970.09;5024723;28;20524;-75
2022/01/10 09:21:47;;;;;;;42.65;18.30;;;;;;;0.63;96.67;101980.72;5023340;28;20432;-74
2022/01/10 09:24:13;;;;;;;44.75;18.20;;;;;;;0.66;96.54;101979.81;5023969;28;20401;-74
2022/01/10 09:26:39;;;;;;;40.33;18.02;;;;;;;0.72;96.80;101993.97;5024365;28;20040;-74
2022/01/10 09:29:04;;;;;;;44.45;19.85;;;;;;;0.74;96.48;101981.44;5026240;28;20025;-74
2022/01/10 09:31:30;;;;;;;42.08;18.80;;;;;;;0.78;96.56;101987.66;5023363;28;20028;-74
2022/01/10 09:33:56;;;;;;;41.20;18.95;;;;;;;0.85;96.44;101996.50;5011605;28;20037;-75
2022/01/10 09:36:24;;;;;;;42.97;18.90;;;;;;;0.87;96.48;101984.84;5011087;28;20057;-75
2022/01/10 09:38:49;;;;;;;39.63;18.08;;;;;;;0.93;96.22;101992.81;5023383;28;20033;-77
2022/01/10 09:41:14;;;;;;;41.65;17.27;;;;;;;0.99;96.48;101994.50;5021681;28;20017;-75
2022/01/10 09:43:47;;;;;;;35.33;17.35;;;;;;;1.07;96.32;102000.63;5029386;28;20092;-76
2022/01/10 09:46:12;;;;;;;;;;;;;;;1.14;95.92;101999.63;5019306;28;20053;-75
2022/01/10 09:48:38;;;;;;;35.63;16.80;;;;;;;1.20;95.74;101999.53;5019167;28;19954;-77
2022/01/10 09:51:04;;;;;;;42.03;17.85;;;;;;;1.24;95.85;102003.06;5025702;28;20479;-76
2022/01/10 09:53:30;;;;;;;38.53;17.65;;;;;;;1.31;95.57;102009.25;5023512;28;20041;-72
2022/01/10 09:55:55;;;;;;;38.05;17.00;;;;;;;1.35;95.22;102017.19;5028407;28;20025;-75
2022/01/10 09:58:20;;;;;;;39.33;17.20;;;;;;;1.43;95.12;102020.63;5029795;28;20025;-77
2022/01/10 10:00:46;;;;;;;37.08;16.58;;;;;;;1.51;95.41;102031.25;5026086;28;20026;-73
2022/01/10 10:03:11;;;;;;;38.72;17.05;;;;;;;1.60;95.26;102032.91;5029388;28;20381;-72
2022/01/10 10:05:36;;;;;;;31.20;16.02;;;;;;;1.66;95.05;102038.16;5023588;28;20183;-75
2022/01/10 10:08:03;;;;;;;34.05;15.98;;;;;;;1.75;94.80;102040.69;5023966;28;20033;-75
2022/01/10 10:10:29;;;;;;;41.63;15.55;;;;;;;1.83;94.69;102038.75;5027507;28;20036;-75
2022/01/10 10:12:54;;;;;;;33.15;15.45;;;;;;;1.90;94.32;102052.94;5021181;28;20029;-71
2022/01/10 10:15:28;;;;;;;44.30;17.50;;;;;;;1.96;94.89;102058.22;5016932;28;20032;-72
2022/01/10 10:17:54;;;;;;;34.53;15.35;;;;;;;1.99;93.99;102063.53;5028954;28;20051;-76
2022/01/10 10:20:21;;;;;;;33.28;15.02;;;;;;;2.04;93.84;102073.25;5028410;28;20025;-75
2022/01/10 10:22:49;;;;;;;34.30;15.55;;;;;;;2.11;93.54;102075.84;5019171;28;20025;-74
2022/01/10 10:25:15;;;;;;;32.40;15.05;;;;;;;2.19;93.85;102081.94;5026631;28;20024;-74
2022/01/10 10:27:43;;;;;;;33.03;14.65;;;;;;;2.24;94.19;102088.16;5029784;28;20481;-72
2022/01/10 10:30:27;;;;;;;35.22;14.85;;;;;;;2.27;93.85;102088.97;5018256;28;20111;-74
2022/01/10 10:33:09;;;;;;;33.83;14.70;;;;;;;2.26;92.79;102097.06;5029751;28;20030;-75
2022/01/10 10:35:35;;;;;;;34.60;15.05;;;;;;;2.27;92.98;102097.00;5027224;28;20034;-74
2022/01/10 10:38:02;;;;;;;37.90;14.73;;;;;;;2.32;93.00;102101.41;5023277;28;20033;-74
2022/01/10 10:40:29;;;;;;;33.65;14.23;;;;;;;2.39;93.39;102106.66;5026833;28;20414;-74
2022/01/10 10:42:58;;;;;;;29.02;13.63;;;;;;;2.43;93.11;102105.69;5029080;28;20022;-75
2022/01/10 10:45:25;;;;;;;32.97;13.75;;;;;;;2.47;93.19;102103.81;5024009;28;20124;-75
2022/01/10 10:47:50;;;;;;;32.53;13.52;;;;;;;2.44;92.62;102104.78;5010266;28;20029;-72
2022/01/10 10:50:15;;;;;;;31.30;13.57;;;;;;;2.44;92.87;102112.84;5025119;28;20132;-75
2022/01/10 10:52:44;;;;;;;33.85;12.88;;;;;;;2.43;92.65;102100.31;5021585;28;20026;-72
2022/01/10 10:55:12;;;;;;;29.67;13.00;;;;;;;2.41;91.71;102112.88;5022548;28;20036;-74
2022/01/10 10:57:38;;;;;;;30.10;13.90;;;;;;;2.41;92.98;102114.69;5027406;28;20029;-75
2022/01/10 11:00:08;;;;;;;29.08;12.23;;;;;;;2.41;92.20;102110.19;5025157;28;20057;-74
2022/01/10 11:02:34;;;;;;;28.10;13.27;;;;;;;2.48;92.46;102111.88;5028308;28;20055;-74
2022/01/10 11:05:03;;;;;;;29.52;12.75;;;;;;;2.61;92.68;102127.72;5027146;28;20025;-73
2022/01/10 11:07:33;;;;;;;34.92;14.95;;;;;;;2.70;92.92;102132.94;5014341;28;20022;-75
2022/01/10 11:09:59;;;;;;;32.95;14.07;;;;;;;2.76;92.17;102132.84;5019266;28;20025;-75
2022/01/10 11:12:26;;;;;;;29.20;14.02;;;;;;;2.88;93.14;102131.69;5028465;28;20400;-75
2022/01/10 11:14:54;;;;;;;32.35;13.48;;;;;;;3.01;93.51;102144.84;5012386;28;20029;-75